Time;durP1;ratioP1;P1;durP2;ratioP2;P2;SDS_P1;SDS_P2;PMS_P1;PMS_P2;Temp;Humidity;BMP_temperature;BMP_pressure;BME280_temperature;BME280_humidity;BME280_pressure;Samples;Min_cycle;Max_cycle;Signal;HPM_P1;HPM_P2
2022/12/23 00:01:05;;;;;;;26.20;15.10;;;4.90;99.90;;;;;;5051511;28;20511;-61
2022/12/23 00:03:31;;;;;;;28.80;16.73;;;4.90;99.90;;;;;;5041785;28;20022;-59
2022/12/23 00:05:57;;;;;;;28.25;16.65;;;4.90;99.90;;;;;;5042456;28;20035;-61
2022/12/23 00:08:23;;;;;;;27.40;14.60;;;4.90;99.90;;;;;;5037832;28;20037;-62
2022/12/23 00:10:51;;;;;;;25.92;15.70;;;4.90;99.90;;;;;;5033236;28;20041;-60
2022/12/23 00:16:06;;;;;;;23.08;13.77;;;4.90;99.90;;;;;;5039120;28;20063;-61
2022/12/23 00:18:32;;;;;;;28.10;17.35;;;4.90;99.90;;;;;;5037417;28;20036;-61
2022/12/23 00:20:59;;;;;;;28.15;15.90;;;4.90;99.90;;;;;;5046847;28;20029;-60
2022/12/23 00:23:25;;;;;;;28.92;16.15;;;4.90;99.90;;;;;;5049276;28;20032;-61
2022/12/23 00:25:51;;;;;;;26.02;16.10;;;4.90;99.90;;;;;;5049730;28;20396;-61
2022/12/23 00:28:20;;;;;;;25.48;15.73;;;4.90;99.90;;;;;;5046204;28;20032;-61
2022/12/23 00:30:46;;;;;;;26.70;16.63;;;4.90;99.90;;;;;;5048938;28;20111;-61
2022/12/23 00:33:14;;;;;;;25.83;15.25;;;4.90;99.90;;;;;;5045265;28;20032;-61
2022/12/23 00:35:40;;;;;;;29.00;16.80;;;4.90;99.90;;;;;;5041622;28;20508;-60
2022/12/23 00:38:06;;;;;;;23.10;15.05;;;4.90;99.90;;;;;;5047713;28;20032;-60
2022/12/23 00:43:16;;;;;;;26.70;14.68;;;4.90;99.90;;;;;;5050087;28;20093;-61
2022/12/23 00:45:42;;;;;;;25.70;15.18;;;4.90;99.90;;;;;;5045647;28;20029;-60
2022/12/23 00:50:52;;;;;;;26.10;15.35;;;4.90;99.90;;;;;;5046285;28;20078;-60
2022/12/23 00:53:18;;;;;;;31.30;17.38;;;4.90;99.90;;;;;;5048999;28;20151;-61
2022/12/23 00:55:46;;;;;;;25.73;17.20;;;4.90;99.90;;;;;;5050594;28;20455;-58
2022/12/23 00:58:13;;;;;;;28.52;16.70;;;4.90;99.90;;;;;;5046744;28;20017;-61
2022/12/23 01:06:07;;;;;;;32.67;17.25;;;4.90;99.90;;;;;;5049197;28;20562;-61
2022/12/23 01:08:32;;;;;;;28.70;17.30;;;4.90;99.90;;;;;;5037054;28;20045;-60
2022/12/23 01:11:05;;;;;;;24.83;16.52;;;4.90;99.90;;;;;;5042246;28;20029;-60
2022/12/23 01:13:31;;;;;;;28.98;15.68;;;4.90;99.90;;;;;;5037791;28;20033;-62
2022/12/23 01:16:05;;;;;;;27.40;16.40;;;4.90;99.90;;;;;;5047743;28;20028;-60
2022/12/23 01:18:32;;;;;;;26.60;16.52;;;4.90;99.90;;;;;;5042055;28;20104;-59
2022/12/23 01:21:03;;;;;;;30.05;16.77;;;5.00;99.90;;;;;;5043446;28;20026;-61
2022/12/23 01:23:28;;;;;;;24.98;15.20;;;5.00;99.90;;;;;;5046610;28;20544;-61
2022/12/23 01:26:03;;;;;;;31.13;18.58;;;5.00;99.90;;;;;;5051754;28;20131;-62
2022/12/23 01:28:30;;;;;;;31.00;16.95;;;5.00;99.90;;;;;;5044968;28;20063;-61
2022/12/23 01:30:56;;;;;;;34.83;18.33;;;5.00;99.90;;;;;;5041552;28;20037;-61
2022/12/23 01:33:21;;;;;;;26.10;17.27;;;5.00;99.90;;;;;;5043962;28;20031;-61
2022/12/23 01:35:47;;;;;;;26.92;17.08;;;5.00;99.90;;;;;;5043869;28;20026;-62
2022/12/23 01:38:13;;;;;;;27.80;16.92;;;5.00;99.90;;;;;;5023865;28;20074;-62
2022/12/23 01:40:41;;;;;;;27.73;16.23;;;5.00;99.90;;;;;;5047244;28;20025;-61
2022/12/23 01:43:16;;;;;;;28.25;16.23;;;5.00;99.90;;;;;;5048921;28;20029;-60
2022/12/23 01:45:42;;;;;;;27.48;17.30;;;5.00;99.90;;;;;;5045321;28;20091;-61
2022/12/23 01:48:24;;;;;;;29.45;17.23;;;5.00;99.90;;;;;;5048084;28;20506;-61
2022/12/23 01:51:01;;;;;;;30.27;17.52;;;5.00;99.90;;;;;;5044628;28;20024;-61
2022/12/23 01:53:30;;;;;;;32.22;17.83;;;5.00;99.90;;;;;;5038897;28;20036;-60
2022/12/23 01:56:16;;;;;;;25.80;16.73;;;5.00;99.90;;;;;;5048209;28;20025;-61
2022/12/23 01:58:53;;;;;;;30.13;17.52;;;5.00;99.90;;;;;;5054814;28;20098;-61
2022/12/23 02:04:08;;;;;;;32.35;17.17;;;5.00;99.90;;;;;;5044455;28;20024;-61
2022/12/23 02:09:25;;;;;;;35.70;18.25;;;5.00;99.90;;;;;;5044737;28;20075;-61
2022/12/23 02:12:25;;;;;;;32.42;17.83;;;5.00;99.90;;;;;;5048242;28;20013;-61
2022/12/23 02:18:13;;;;;;;34.50;19.48;;;5.00;99.90;;;;;;5045210;28;20101;-61
2022/12/23 02:21:06;;;;;;;28.23;16.98;;;5.00;99.90;;;;;;5046350;28;20036;-60
2022/12/23 02:23:34;;;;;;;30.73;16.60;;;5.00;99.90;;;;;;5041682;28;20029;-61
2022/12/23 02:26:29;;;;;;;29.20;17.35;;;5.00;99.90;;;;;;5047542;28;20643;-61
2022/12/23 02:29:16;;;;;;;34.88;18.30;;;5.00;99.90;;;;;;5043311;28;20029;-60
2022/12/23 02:31:56;;;;;;;34.95;18.15;;;5.00;99.90;;;;;;5043737;28;20204;-60
2022/12/23 02:34:42;;;;;;;32.47;19.30;;;5.00;99.90;;;;;;5045691;28;20122;-60
2022/12/23 02:37:35;;;;;;;27.30;16.52;;;5.00;99.90;;;;;;5043840;28;20029;-60
2022/12/23 02:40:07;;;;;;;32.75;18.73;;;5.00;99.90;;;;;;5041752;28;20048;-61
2022/12/23 02:42:43;;;;;;;25.08;16.45;;;5.00;99.90;;;;;;5041347;28;20032;-60
2022/12/23 02:45:20;;;;;;;31.02;18.38;;;5.10;99.90;;;;;;5044737;28;20029;-60
2022/12/23 02:48:01;;;;;;;32.75;18.30;;;5.00;99.90;;;;;;5047008;28;20416;-60
2022/12/23 02:50:33;;;;;;;33.92;19.48;;;5.00;99.90;;;;;;5044079;28;20029;-59
2022/12/23 02:53:05;;;;;;;27.70;18.58;;;5.00;99.90;;;;;;5043642;28;20024;-60
2022/12/23 02:55:34;;;;;;;35.35;19.27;;;5.10;99.90;;;;;;5026735;28;20021;-61
2022/12/23 02:58:05;;;;;;;32.58;18.88;;;5.00;99.90;;;;;;5043359;28;20092;-59
2022/12/23 03:00:31;;;;;;;38.60;19.13;;;5.10;99.90;;;;;;5028249;28;20021;-60
2022/12/23 03:02:58;;;;;;;35.33;19.27;;;5.10;99.90;;;;;;5048294;28;20013;-60
2022/12/23 03:05:25;;;;;;;32.05;19.58;;;5.10;99.90;;;;;;5033571;28;20028;-60
2022/12/23 03:07:53;;;;;;;33.03;17.90;;;5.10;99.90;;;;;;5041845;28;20025;-60
2022/12/23 03:10:55;;;;;;;36.17;20.35;;;5.10;99.90;;;;;;5046634;28;20029;-59
2022/12/23 03:13:42;;;;;;;35.85;19.55;;;5.10;99.90;;;;;;5045667;28;20087;-59
2022/12/23 03:16:16;;;;;;;31.35;20.05;;;5.10;99.90;;;;;;5051863;28;20051;-60
2022/12/23 03:19:09;;;;;;;37.22;20.75;;;5.10;99.90;;;;;;5031923;28;20028;-60
2022/12/23 03:21:47;;;;;;;33.65;20.20;;;5.10;99.90;;;;;;5050693;28;20587;-58
2022/12/23 03:24:27;;;;;;;34.92;18.88;;;5.10;99.90;;;;;;5045851;28;20616;-60
2022/12/23 03:27:10;;;;;;;39.75;21.55;;;5.10;99.90;;;;;;5046930;28;20052;-61
2022/12/23 03:29:43;;;;;;;40.30;21.38;;;5.10;99.90;;;;;;5048842;28;20025;-61
2022/12/23 03:32:11;;;;;;;39.72;20.52;;;5.10;99.90;;;;;;5044093;28;20095;-61
2022/12/23 03:34:43;;;;;;;43.15;22.65;;;5.10;99.90;;;;;;5046949;28;20036;-60
2022/12/23 03:37:12;;;;;;;38.30;21.05;;;5.10;99.90;;;;;;5028895;28;20032;-60
2022/12/23 03:39:45;;;;;;;32.47;19.30;;;5.10;99.90;;;;;;5046951;28;20090;-60
2022/12/23 03:42:37;;;;;;;34.60;20.17;;;5.10;99.90;;;;;;5049396;28;20021;-61
2022/12/23 03:45:12;;;;;;;43.97;21.67;;;5.10;99.90;;;;;;5048254;28;20103;-60
2022/12/23 03:47:44;;;;;;;41.60;22.95;;;5.10;99.90;;;;;;5023107;28;20025;-60
2022/12/23 03:50:13;;;;;;;38.35;21.35;;;5.10;99.90;;;;;;5044442;28;20499;-60
2022/12/23 03:52:53;;;;;;;36.35;19.27;;;5.10;99.90;;;;;;5045988;28;20025;-60
2022/12/23 03:55:43;;;;;;;33.85;20.02;;;5.10;99.90;;;;;;5043244;28;20032;-60
2022/12/23 03:58:35;;;;;;;44.53;21.95;;;5.10;99.90;;;;;;5049128;28;20383;-60
2022/12/23 04:01:35;;;;;;;36.10;20.95;;;5.10;99.90;;;;;;5043663;28;20100;-60
2022/12/23 04:04:01;;;;;;;40.67;23.60;;;5.10;99.90;;;;;;5027719;28;20025;-60
2022/12/23 04:06:35;;;;;;;37.45;22.35;;;5.10;99.90;;;;;;5044736;28;20033;-60
2022/12/23 04:09:01;;;;;;;38.35;22.25;;;5.10;99.90;;;;;;5048076;28;20017;-60
2022/12/23 04:11:28;;;;;;;41.28;22.63;;;5.10;99.90;;;;;;5048011;28;20022;-58
2022/12/23 04:13:54;;;;;;;40.05;22.00;;;5.10;99.90;;;;;;5044589;28;20121;-60
2022/12/23 04:16:19;;;;;;;40.33;22.45;;;5.10;99.90;;;;;;5030553;28;20021;-60
2022/12/23 04:18:45;;;;;;;41.30;24.10;;;5.10;99.90;;;;;;5033312;28;20489;-59
2022/12/23 04:21:10;;;;;;;41.10;21.55;;;5.10;99.90;;;;;;5048156;28;20017;-60
2022/12/23 04:23:36;;;;;;;35.95;21.92;;;5.10;99.90;;;;;;5049096;28;20021;-57
2022/12/23 04:26:02;;;;;;;45.65;25.13;;;5.10;99.90;;;;;;5045450;28;20029;-60
2022/12/23 04:28:27;;;;;;;40.60;23.50;;;5.10;99.90;;;;;;5047258;28;20025;-58
2022/12/23 04:30:53;;;;;;;39.40;23.42;;;5.10;99.90;;;;;;5051436;28;20024;-59
2022/12/23 04:33:18;;;;;;;37.47;21.70;;;5.10;99.90;;;;;;5038035;28;20115;-60
2022/12/23 04:35:44;;;;;;;34.80;21.63;;;5.10;99.90;;;;;;5041363;28;20116;-60
2022/12/23 04:38:10;;;;;;;41.03;21.73;;;5.10;99.90;;;;;;5040251;28;20057;-58
2022/12/23 04:40:35;;;;;;;41.90;22.63;;;5.10;99.90;;;;;;5050217;28;20067;-58
2022/12/23 04:43:01;;;;;;;42.45;23.45;;;5.10;99.90;;;;;;5047172;28;20429;-59
2022/12/23 04:45:26;;;;;;;41.75;23.08;;;5.10;99.90;;;;;;5048536;28;20044;-60
2022/12/23 04:47:54;;;;;;;42.75;23.92;;;5.20;99.90;;;;;;5051117;28;20025;-57
2022/12/23 04:50:19;;;;;;;41.28;23.55;;;5.10;99.90;;;;;;5044339;28;20071;-59
2022/12/23 04:52:45;;;;;;;45.85;25.13;;;5.20;99.90;;;;;;5019167;28;20025;-60
2022/12/23 04:55:10;;;;;;;45.90;24.05;;;5.20;99.90;;;;;;5046781;28;20381;-59
2022/12/23 04:57:36;;;;;;;43.60;22.40;;;5.20;99.90;;;;;;5047416;28;20036;-60
2022/12/23 05:00:03;;;;;;;44.97;22.45;;;5.20;99.90;;;;;;5044706;28;20095;-60
2022/12/23 05:02:29;;;;;;;38.95;21.33;;;5.20;99.90;;;;;;5048021;28;20025;-59
2022/12/23 05:04:54;;;;;;;45.85;23.40;;;5.20;99.90;;;;;;5042328;28;20044;-59
2022/12/23 05:07:20;;;;;;;47.90;25.05;;;5.20;99.90;;;;;;5019787;28;20029;-60
2022/12/23 05:09:45;;;;;;;39.47;22.17;;;5.20;99.90;;;;;;5041723;28;20036;-60
2022/12/23 05:12:14;;;;;;;46.28;23.85;;;5.20;99.90;;;;;;5078005;23;20048;-57
2022/12/23 05:14:39;;;;;;;58.65;26.55;;;5.20;99.90;;;;;;5067715;28;20541;-59
2022/12/23 05:17:05;;;;;;;45.47;23.35;;;5.20;99.90;;;;;;5070508;28;20028;-57
2022/12/23 05:19:30;;;;;;;50.08;25.73;;;5.20;99.90;;;;;;5075784;28;20024;-59
2022/12/23 05:21:56;;;;;;;47.45;25.90;;;5.20;99.90;;;;;;5074665;28;20020;-60
2022/12/23 05:24:21;;;;;;;47.40;24.38;;;5.20;99.90;;;;;;5070720;28;20059;-59
2022/12/23 05:26:47;;;;;;;52.97;24.02;;;5.20;99.90;;;;;;5077154;28;20098;-58
2022/12/23 05:29:14;;;;;;;56.25;26.05;;;5.20;99.90;;;;;;5068480;28;20029;-58
2022/12/23 05:31:39;;;;;;;58.65;24.80;;;5.20;99.90;;;;;;5064291;28;20013;-58
2022/12/23 05:34:05;;;;;;;58.88;27.25;;;5.20;99.90;;;;;;5071064;28;20099;-57
2022/12/23 05:36:30;;;;;;;54.45;26.95;;;5.20;99.90;;;;;;5069824;28;20021;-58
2022/12/23 05:38:56;;;;;;;57.80;27.85;;;5.30;99.90;;;;;;5061929;28;20439;-58
2022/12/23 05:41:22;;;;;;;56.67;25.05;;;5.30;99.90;;;;;;5068123;28;20044;-59
2022/12/23 05:43:48;;;;;;;56.80;26.75;;;5.30;99.90;;;;;;5062041;28;20405;-60
2022/12/23 05:46:13;;;;;;;59.90;28.13;;;5.30;99.90;;;;;;5068579;28;20032;-60
2022/12/23 05:48:39;;;;;;;53.63;24.17;;;5.30;99.90;;;;;;5059256;28;20032;-59
2022/12/23 05:51:04;;;;;;;65.97;27.10;;;5.30;99.90;;;;;;5067328;28;20116;-58
2022/12/23 05:53:30;;;;;;;56.65;26.50;;;5.30;99.90;;;;;;5070577;28;20024;-60
2022/12/23 05:55:56;;;;;;;59.20;27.02;;;5.30;99.90;;;;;;5072916;28;20115;-59
2022/12/23 05:58:21;;;;;;;64.43;28.23;;;5.30;99.90;;;;;;5075193;28;20020;-59
2022/12/23 06:00:47;;;;;;;58.22;26.08;;;5.30;99.90;;;;;;5066604;28;20655;-59
2022/12/23 06:03:12;;;;;;;60.88;27.10;;;5.30;99.90;;;;;;5069801;28;20091;-58
2022/12/23 06:05:38;;;;;;;66.93;27.35;;;5.30;99.90;;;;;;5077915;28;20028;-57
2022/12/23 06:08:04;;;;;;;65.78;27.95;;;5.30;99.90;;;;;;5069734;28;20024;-59
2022/12/23 06:10:30;;;;;;;51.25;24.08;;;5.30;99.90;;;;;;5069746;28;20081;-59
2022/12/23 06:12:55;;;;;;;57.95;28.25;;;5.30;99.90;;;;;;5068964;28;20028;-57
2022/12/23 06:15:21;;;;;;;49.22;24.17;;;5.30;99.90;;;;;;5076340;28;20105;-58
2022/12/23 06:17:47;;;;;;;71.63;27.48;;;5.30;99.90;;;;;;5065303;28;20032;-58
2022/12/23 06:20:12;;;;;;;53.05;27.77;;;5.30;99.90;;;;;;5073831;28;20434;-56
2022/12/23 06:22:38;;;;;;;50.85;26.02;;;5.30;99.90;;;;;;5067707;28;20025;-58
2022/12/23 06:25:04;;;;;;;52.28;26.52;;;5.30;99.90;;;;;;5069330;28;20016;-59
2022/12/23 06:27:30;;;;;;;63.97;26.33;;;5.30;99.90;;;;;;5067314;28;20055;-60
2022/12/23 06:29:55;;;;;;;56.63;26.42;;;5.30;99.90;;;;;;5069311;28;20424;-57
2022/12/23 06:32:21;;;;;;;57.33;23.77;;;5.30;99.90;;;;;;5060579;28;20028;-58
2022/12/23 06:34:49;;;;;;;50.47;23.92;;;5.30;99.90;;;;;;5071701;28;20021;-57
2022/12/23 06:37:14;;;;;;;63.63;24.48;;;5.30;99.90;;;;;;5069384;28;20399;-58
2022/12/23 06:39:40;;;;;;;60.60;25.55;;;5.20;99.90;;;;;;5069603;28;20024;-58
2022/12/23 06:42:05;;;;;;;60.15;23.70;;;5.30;99.90;;;;;;5068318;28;20025;-59
2022/12/23 06:44:31;;;;;;;54.40;23.60;;;5.30;99.90;;;;;;5069035;28;20024;-58
2022/12/23 06:46:56;;;;;;;49.60;25.27;;;5.30;99.90;;;;;;5069337;28;20111;-58
2022/12/23 06:49:22;;;;;;;57.17;25.17;;;5.30;99.90;;;;;;5069318;28;20021;-59
2022/12/23 06:51:47;;;;;;;51.58;23.65;;;5.30;99.90;;;;;;5069613;28;20020;-57
2022/12/23 06:54:13;;;;;;;46.65;22.45;;;5.30;99.90;;;;;;5051377;28;20024;-59
2022/12/23 06:56:38;;;;;;;47.00;23.40;;;5.30;99.90;;;;;;5069166;28;20048;-58
2022/12/23 06:59:04;;;;;;;49.10;23.13;;;5.30;99.90;;;;;;5068972;28;20404;-60
2022/12/23 07:01:30;;;;;;;51.85;24.52;;;5.30;99.90;;;;;;5065108;28;20078;-57
2022/12/23 07:03:56;;;;;;;50.50;23.70;;;5.30;99.90;;;;;;5070025;28;20025;-57
2022/12/23 07:06:21;;;;;;;46.67;23.73;;;5.30;99.90;;;;;;5074917;28;20032;-60
2022/12/23 07:08:47;;;;;;;46.85;21.65;;;5.30;99.90;;;;;;5061118;28;20073;-57
2022/12/23 07:11:12;;;;;;;46.40;22.83;;;5.20;99.90;;;;;;5067727;28;20071;-58
2022/12/23 07:13:38;;;;;;;50.15;22.83;;;5.20;99.90;;;;;;5065765;28;20025;-58
2022/12/23 07:16:06;;;;;;;45.28;22.00;;;5.20;99.90;;;;;;5069081;28;20039;-58
2022/12/23 07:18:31;;;;;;;46.03;23.95;;;5.20;99.90;;;;;;5068708;28;20055;-58
2022/12/23 07:20:59;;;;;;;81.72;24.70;;;5.20;99.90;;;;;;5072199;28;20089;-59
2022/12/23 07:23:25;;;;;;;57.10;23.25;;;5.30;99.90;;;;;;5067901;28;20059;-55
2022/12/23 07:25:50;;;;;;;49.85;23.95;;;5.30;99.90;;;;;;5067971;28;20752;-59
2022/12/23 07:28:16;;;;;;;61.80;23.88;;;5.30;99.90;;;;;;5068203;28;20047;-58
2022/12/23 07:30:42;;;;;;;51.20;20.73;;;5.30;99.90;;;;;;5063381;28;20032;-56
2022/12/23 07:33:08;;;;;;;58.20;24.90;;;5.30;99.90;;;;;;5066835;28;20028;-57
2022/12/23 07:35:33;;;;;;;63.65;21.35;;;5.30;99.90;;;;;;5068603;28;20036;-59
2022/12/23 07:37:59;;;;;;;44.65;21.45;;;5.30;99.90;;;;;;5063532;28;20024;-56
2022/12/23 07:40:25;;;;;;;45.53;20.38;;;5.30;99.90;;;;;;5069420;28;20102;-57
2022/12/23 07:42:56;;;;;;;47.00;21.10;;;5.30;99.90;;;;;;5074329;28;20025;-59
2022/12/23 07:45:21;;;;;;;46.22;20.60;;;5.30;99.90;;;;;;5070450;28;20025;-57
2022/12/23 07:47:52;;;;;;;43.70;19.13;;;5.30;99.90;;;;;;5061039;28;20573;-57
2022/12/23 07:50:17;;;;;;;48.65;20.63;;;5.30;99.90;;;;;;5075060;28;20012;-57
2022/12/23 07:52:43;;;;;;;51.45;20.63;;;5.30;99.90;;;;;;5068335;28;20028;-58
2022/12/23 07:55:08;;;;;;;57.63;22.83;;;5.30;99.90;;;;;;5069947;28;20031;-57
2022/12/23 07:57:36;;;;;;;43.05;20.02;;;5.30;99.90;;;;;;5051081;28;20223;-58
2022/12/23 08:00:06;;;;;;;58.90;22.10;;;5.30;99.90;;;;;;5071782;28;20104;-58
2022/12/23 08:02:32;;;;;;;49.03;20.33;;;5.30;99.90;;;;;;5068399;28;20021;-57
2022/12/23 08:04:58;;;;;;;42.45;19.90;;;5.30;99.90;;;;;;5071863;28;20024;-57
2022/12/23 08:07:23;;;;;;;44.13;19.20;;;5.30;99.90;;;;;;5073451;28;20081;-58
2022/12/23 08:09:49;;;;;;;44.92;20.55;;;5.30;99.90;;;;;;5071901;28;20025;-57
2022/12/23 08:12:15;;;;;;;50.72;19.70;;;5.30;99.90;;;;;;5053370;28;20028;-58
2022/12/23 08:14:40;;;;;;;46.10;21.48;;;5.30;99.90;;;;;;5069781;28;20021;-55
2022/12/23 08:17:06;;;;;;;45.92;19.52;;;5.40;99.90;;;;;;5071493;28;20028;-59
2022/12/23 08:19:31;;;;;;;48.42;21.45;;;5.30;99.90;;;;;;5072102;28;20400;-56
2022/12/23 08:21:57;;;;;;;70.90;21.95;;;5.30;99.90;;;;;;5071687;28;20025;-58
2022/12/23 08:24:22;;;;;;;42.30;18.75;;;5.30;99.90;;;;;;5071150;28;20501;-58
2022/12/23 08:26:48;;;;;;;53.17;20.20;;;5.40;99.90;;;;;;5071343;28;20099;-55
2022/12/23 08:29:14;;;;;;;45.78;19.08;;;5.40;99.90;;;;;;5053461;28;20021;-58
2022/12/23 08:31:39;;;;;;;46.33;19.33;;;5.40;99.90;;;;;;5071454;28;20031;-58
2022/12/23 08:34:05;;;;;;;62.95;19.55;;;5.40;99.90;;;;;;5071489;28;20052;-57
2022/12/23 08:36:33;;;;;;;43.38;19.85;;;5.40;99.90;;;;;;5062531;28;20028;-57
2022/12/23 08:39:01;;;;;;;40.05;18.33;;;5.40;99.90;;;;;;5070798;28;20762;-57
2022/12/23 08:41:30;;;;;;;53.70;19.75;;;5.40;99.90;;;;;;5077830;28;20020;-57
2022/12/23 08:43:56;;;;;;;41.85;18.20;;;5.40;99.90;;;;;;5056125;28;20499;-58
2022/12/23 08:46:23;;;;;;;46.65;18.63;;;5.40;99.90;;;;;;5070709;28;20021;-58
2022/12/23 08:48:48;;;;;;;41.88;17.65;;;5.40;99.90;;;;;;5071093;28;20111;-57
2022/12/23 08:51:15;;;;;;;43.42;18.67;;;5.40;99.90;;;;;;5070821;28;20572;-58
2022/12/23 08:53:41;;;;;;;40.35;18.23;;;5.40;99.90;;;;;;5070493;28;20514;-58
2022/12/23 08:56:10;;;;;;;31.88;17.30;;;5.50;99.90;;;;;;5052697;28;20130;-59
2022/12/23 08:58:42;;;;;;;50.65;18.33;;;5.50;99.90;;;;;;5070707;28;20036;-58
2022/12/23 09:01:10;;;;;;;33.25;16.90;;;5.50;99.90;;;;;;5070683;28;20027;-55
2022/12/23 09:03:36;;;;;;;46.08;19.25;;;5.50;99.90;;;;;;5076401;28;20488;-59
2022/12/23 09:06:06;;;;;;;41.90;18.80;;;5.50;99.90;;;;;;5070135;28;20116;-57
2022/12/23 09:08:33;;;;;;;40.22;18.50;;;5.50;99.90;;;;;;5073595;28;20539;-57
2022/12/23 09:10:58;;;;;;;61.42;20.50;;;5.50;99.90;;;;;;5071609;28;20105;-58
2022/12/23 09:13:24;;;;;;;38.42;17.90;;;5.50;99.90;;;;;;5073231;28;20594;-58
2022/12/23 09:15:49;;;;;;;39.10;18.13;;;5.60;99.90;;;;;;5073819;28;20025;-55
2022/12/23 09:18:15;;;;;;;40.00;18.73;;;5.50;99.90;;;;;;5072105;28;20016;-58
2022/12/23 09:20:40;;;;;;;40.15;18.58;;;5.60;99.90;;;;;;5067251;28;20055;-57
2022/12/23 09:23:06;;;;;;;37.90;18.25;;;5.60;99.90;;;;;;5067110;28;20024;-55
2022/12/23 09:25:32;;;;;;;41.63;16.85;;;5.60;99.90;;;;;;5066940;28;20025;-59
2022/12/23 09:27:58;;;;;;;39.33;18.63;;;5.60;99.90;;;;;;5067375;28;20032;-59
2022/12/23 09:30:24;;;;;;;38.03;17.55;;;5.60;99.90;;;;;;5071045;28;20028;-56
2022/12/23 09:32:50;;;;;;;39.90;19.25;;;5.60;99.90;;;;;;5072446;28;20082;-58
2022/12/23 09:35:15;;;;;;;62.55;19.60;;;5.60;99.90;;;;;;5072321;28;20035;-58
2022/12/23 09:37:41;;;;;;;38.95;17.63;;;5.60;99.90;;;;;;5070510;28;20025;-57
2022/12/23 09:40:10;;;;;;;40.30;17.38;;;5.60;99.90;;;;;;5067116;28;20026;-57
2022/12/23 09:42:52;;;;;;;41.00;18.85;;;5.60;99.90;;;;;;5036474;28;20640;-58
2022/12/23 09:45:41;;;;;;;48.63;18.42;;;5.60;99.90;;;;;;5065356;28;20020;-58
2022/12/23 09:48:16;;;;;;;39.65;18.27;;;5.60;99.90;;;;;;5052014;28;20091;-58
2022/12/23 09:50:42;;;;;;;46.35;19.05;;;5.70;99.90;;;;;;5069934;28;20484;-58
2022/12/23 09:53:14;;;;;;;47.33;19.42;;;5.70;99.90;;;;;;5069254;28;20036;-59
2022/12/23 09:55:47;;;;;;;38.70;18.10;;;5.70;99.90;;;;;;5065268;28;20495;-58
2022/12/23 09:58:42;;;;;;;37.80;19.20;;;5.70;99.90;;;;;;5068415;28;20396;-58
2022/12/23 10:01:29;;;;;;;39.60;18.25;;;5.70;99.90;;;;;;5069660;28;20089;-57
2022/12/23 10:04:22;;;;;;;41.47;17.00;;;5.70;99.90;;;;;;5051734;28;20431;-57
2022/12/23 10:07:04;;;;;;;42.95;17.80;;;5.70;99.90;;;;;;5064596;28;20549;-58
2022/12/23 10:09:37;;;;;;;37.22;17.77;;;5.70;99.90;;;;;;5069678;28;20024;-58
2022/12/23 10:12:27;;;;;;;41.38;18.77;;;5.70;99.90;;;;;;5069619;28;20056;-58
2022/12/23 10:14:56;;;;;;;42.35;18.38;;;5.70;99.90;;;;;;5073313;28;20024;-58
2022/12/23 10:17:32;;;;;;;37.58;18.20;;;5.70;99.90;;;;;;5067694;28;20086;-58
2022/12/23 10:20:01;;;;;;;35.75;17.25;;;5.70;99.90;;;;;;5070041;28;20555;-57
2022/12/23 10:22:43;;;;;;;38.42;16.23;;;5.70;99.90;;;;;;5051172;28;20055;-58
2022/12/23 10:25:36;;;;;;;40.40;19.05;;;5.70;99.90;;;;;;5071736;28;20503;-57
2022/12/23 10:28:03;;;;;;;43.17;20.45;;;5.80;99.90;;;;;;5073538;28;20020;-59
2022/12/23 10:30:33;;;;;;;48.38;20.65;;;5.80;99.90;;;;;;5069458;28;20020;-57
2022/12/23 10:33:12;;;;;;;50.42;19.52;;;5.80;99.90;;;;;;5070644;28;20046;-55
2022/12/23 10:36:02;;;;;;;38.70;18.33;;;5.80;99.90;;;;;;5069914;28;20493;-57
2022/12/23 10:38:41;;;;;;;40.00;19.38;;;5.80;99.90;;;;;;5053802;28;20020;-58
2022/12/23 10:41:07;;;;;;;35.25;18.48;;;5.80;99.90;;;;;;5067349;28;20492;-56
2022/12/23 10:43:48;;;;;;;42.03;17.60;;;5.90;99.90;;;;;;5069703;28;20108;-57
2022/12/23 10:46:31;;;;;;;39.80;17.85;;;5.80;99.90;;;;;;5066513;28;20451;-58
2022/12/23 10:49:19;;;;;;;40.80;20.55;;;5.90;99.90;;;;;;5072568;28;20175;-58
2022/12/23 10:52:00;;;;;;;37.97;18.10;;;5.90;99.90;;;;;;5067965;28;20109;-56
2022/12/23 10:54:33;;;;;;;43.17;19.60;;;5.90;99.90;;;;;;5051992;28;20127;-58
2022/12/23 10:57:00;;;;;;;48.60;19.45;;;5.90;99.90;;;;;;5051994;28;20031;-58
2022/12/23 10:59:28;;;;;;;43.92;21.42;;;5.90;99.90;;;;;;5051593;28;20044;-58
2022/12/23 11:02:12;;;;;;;49.22;21.40;;;5.90;99.90;;;;;;5050595;28;20514;-59
2022/12/23 11:04:40;;;;;;;38.63;17.77;;;5.90;99.90;;;;;;5069678;28;20040;-58
2022/12/23 11:07:18;;;;;;;43.72;17.83;;;5.90;99.90;;;;;;5065978;28;20082;-59
2022/12/23 11:09:49;;;;;;;42.58;17.60;;;5.90;99.90;;;;;;5067392;28;20051;-58
2022/12/23 11:12:20;;;;;;;36.42;16.50;;;6.00;99.90;;;;;;5073974;22;20039;-62
2022/12/23 11:14:52;;;;;;;40.58;17.63;;;6.00;99.90;;;;;;5047382;28;20033;-62
2022/12/23 11:17:19;;;;;;;35.42;16.10;;;6.00;99.90;;;;;;5049795;28;20504;-60
2022/12/23 11:19:45;;;;;;;35.22;16.15;;;6.00;99.90;;;;;;5048685;28;20051;-61
2022/12/23 11:22:22;;;;;;;44.00;18.13;;;6.10;99.90;;;;;;5048321;28;20480;-62
2022/12/23 11:24:48;;;;;;;40.80;16.83;;;6.10;99.90;;;;;;5051272;28;20112;-61
2022/12/23 11:27:17;;;;;;;36.38;17.48;;;6.10;99.90;;;;;;5041702;28;20549;-61
2022/12/23 11:29:48;;;;;;;37.20;18.80;;;6.20;99.90;;;;;;5020427;28;20036;-61
2022/12/23 11:32:34;;;;;;;39.60;17.48;;;6.20;99.90;;;;;;5051358;28;20024;-60
2022/12/23 11:35:00;;;;;;;39.03;17.63;;;6.20;99.90;;;;;;5050439;28;20033;-60
2022/12/23 11:37:40;;;;;;;33.67;14.82;;;6.20;99.90;;;;;;5034615;28;20036;-59
2022/12/23 11:40:25;;;;;;;36.42;16.05;;;6.20;99.90;;;;;;5052764;28;20017;-61
2022/12/23 11:42:57;;;;;;;30.90;14.98;;;6.20;99.90;;;;;;5046361;28;20092;-58
2022/12/23 11:45:28;;;;;;;35.78;15.48;;;6.20;99.90;;;;;;5051880;28;20534;-61
2022/12/23 11:47:55;;;;;;;38.42;16.83;;;6.30;99.90;;;;;;5056555;28;20040;-60
2022/12/23 11:50:34;;;;;;;33.50;15.95;;;6.30;99.90;;;;;;5058899;28;20032;-60
2022/12/23 11:53:24;;;;;;;35.78;17.05;;;6.40;99.90;;;;;;5048633;28;20017;-60
2022/12/23 11:56:04;;;;;;;42.83;17.13;;;6.40;99.90;;;;;;5053101;28;20056;-61
2022/12/23 11:58:39;;;;;;;40.08;17.98;;;6.40;99.90;;;;;;5053158;28;20013;-60
2022/12/23 12:01:15;;;;;;;35.25;15.73;;;6.40;99.90;;;;;;5052575;28;20032;-60
2022/12/23 12:03:52;;;;;;;42.88;17.60;;;6.40;99.90;;;;;;5034809;28;20559;-61
2022/12/23 12:06:19;;;;;;;34.97;18.20;;;6.40;99.90;;;;;;5051744;28;20032;-61
2022/12/23 12:08:48;;;;;;;38.08;16.60;;;6.30;99.90;;;;;;5039788;28;20025;-61
2022/12/23 12:11:19;;;;;;;42.33;18.13;;;6.30;99.90;;;;;;5052003;28;20404;-61
2022/12/23 12:13:49;;;;;;;32.17;15.50;;;6.30;99.90;;;;;;5051708;28;20036;-61
2022/12/23 12:16:29;;;;;;;32.78;15.27;;;6.30;99.90;;;;;;5039058;28;20159;-62
2022/12/23 12:19:00;;;;;;;33.38;16.58;;;6.30;99.90;;;;;;5052085;28;20013;-61
2022/12/23 12:21:32;;;;;;;29.33;15.10;;;6.30;99.90;;;;;;5053606;28;20029;-61
2022/12/23 12:24:21;;;;;;;32.28;16.25;;;6.40;99.90;;;;;;5051727;28;20457;-61
2022/12/23 12:26:50;;;;;;;33.67;16.25;;;6.40;99.90;;;;;;5035783;28;20025;-61
2022/12/23 12:29:42;;;;;;;32.45;15.07;;;6.40;99.90;;;;;;5046637;28;20032;-62
2022/12/23 12:32:21;;;;;;;31.15;14.75;;;6.30;99.90;;;;;;5037246;28;20098;-62
2022/12/23 12:34:59;;;;;;;33.30;15.68;;;6.30;99.90;;;;;;5038403;28;20104;-60
2022/12/23 12:37:43;;;;;;;30.05;14.15;;;6.40;99.90;;;;;;5033213;28;20029;-63
2022/12/23 12:40:27;;;;;;;30.13;14.98;;;6.30;99.90;;;;;;5051487;28;20029;-62
2022/12/23 12:43:13;;;;;;;30.80;15.60;;;6.30;99.90;;;;;;5049683;28;20515;-61
2022/12/23 12:45:54;;;;;;;34.20;16.83;;;6.30;99.90;;;;;;5048173;28;20031;-61
2022/12/23 12:48:33;;;;;;;39.00;17.67;;;6.20;99.90;;;;;;5050201;28;20025;-61
2022/12/23 12:51:15;;;;;;;27.48;13.90;;;6.20;99.90;;;;;;5054078;28;20214;-61
2022/12/23 12:53:56;;;;;;;25.58;13.38;;;6.20;99.90;;;;;;5044828;28;20029;-61
2022/12/23 12:56:40;;;;;;;29.80;14.65;;;6.20;99.90;;;;;;5049466;28;20090;-61
2022/12/23 12:59:07;;;;;;;24.92;14.25;;;6.20;99.90;;;;;;5051210;28;20044;-62
2022/12/23 13:01:41;;;;;;;25.95;13.20;;;6.30;99.90;;;;;;5051097;28;20021;-61
2022/12/23 13:04:25;;;;;;;29.40;14.15;;;6.30;99.90;;;;;;5050937;28;20380;-61
2022/12/23 13:06:57;;;;;;;26.70;13.38;;;6.30;99.90;;;;;;5053348;28;20029;-60
2022/12/23 13:09:42;;;;;;;30.50;15.52;;;6.30;99.90;;;;;;5050821;28;20404;-62
2022/12/23 13:12:18;;;;;;;25.33;13.68;;;6.30;99.90;;;;;;5051737;28;20025;-62
2022/12/23 13:14:54;;;;;;;31.95;13.88;;;6.40;99.90;;;;;;5048840;28;20098;-61
2022/12/23 13:17:27;;;;;;;33.80;16.38;;;6.40;99.90;;;;;;5051629;28;20025;-62